sensor_id;sensor_type;location;lat;lon;timestamp;P1;durP1;ratioP1;P2;durP2;ratioP2
64375;SDS011;50700;55.416;12.952;2023-07-31T00:01:17;4.85;;;1.40;;
64375;SDS011;50700;55.416;12.952;2023-07-31T00:03:42;7.22;;;1.90;;
64375;SDS011;50700;55.416;12.952;2023-07-31T00:06:07;10.23;;;2.00;;
64375;SDS011;50700;55.416;12.952;2023-07-31T00:08:33;8.90;;;1.95;;
64375;SDS011;50700;55.416;12.952;2023-07-31T00:10:58;2.75;;;1.17;;
64375;SDS011;50700;55.416;12.952;2023-07-31T00:13:23;6.13;;;1.48;;
64375;SDS011;50700;55.416;12.952;2023-07-31T00:15:49;6.32;;;1.48;;
64375;SDS011;50700;55.416;12.952;2023-07-31T00:18:14;4.82;;;1.52;;
64375;SDS011;50700;55.416;12.952;2023-07-31T00:20:40;4.53;;;1.30;;
64375;SDS011;50700;55.416;12.952;2023-07-31T00:23:05;4.57;;;1.50;;
64375;SDS011;50700;55.416;12.952;2023-07-31T00:25:31;2.05;;;1.20;;
64375;SDS011;50700;55.416;12.952;2023-07-31T00:27:56;6.20;;;1.75;;
64375;SDS011;50700;55.416;12.952;2023-07-31T00:30:22;6.15;;;1.90;;
64375;SDS011;50700;55.416;12.952;2023-07-31T00:32:47;8.40;;;1.90;;
64375;SDS011;50700;55.416;12.952;2023-07-31T00:35:13;7.47;;;1.60;;
64375;SDS011;50700;55.416;12.952;2023-07-31T00:37:38;5.15;;;1.60;;
64375;SDS011;50700;55.416;12.952;2023-07-31T00:40:04;2.25;;;1.50;;
64375;SDS011;50700;55.416;12.952;2023-07-31T00:42:29;3.05;;;1.40;;
64375;SDS011;50700;55.416;12.952;2023-07-31T00:44:54;3.65;;;1.30;;
64375;SDS011;50700;55.416;12.952;2023-07-31T00:47:20;5.38;;;1.55;;
64375;SDS011;50700;55.416;12.952;2023-07-31T00:49:45;3.40;;;1.45;;
64375;SDS011;50700;55.416;12.952;2023-07-31T00:52:11;9.30;;;1.65;;
64375;SDS011;50700;55.416;12.952;2023-07-31T00:54:36;6.85;;;1.73;;
64375;SDS011;50700;55.416;12.952;2023-07-31T00:57:02;8.98;;;1.67;;
64375;SDS011;50700;55.416;12.952;2023-07-31T00:59:27;4.22;;;1.33;;
64375;SDS011;50700;55.416;12.952;2023-07-31T01:01:52;8.95;;;2.00;;
64375;SDS011;50700;55.416;12.952;2023-07-31T01:04:18;6.40;;;1.70;;
64375;SDS011;50700;55.416;12.952;2023-07-31T01:09:11;12.65;;;2.50;;
64375;SDS011;50700;55.416;12.952;2023-07-31T01:11:48;8.63;;;2.03;;
64375;SDS011;50700;55.416;12.952;2023-07-31T01:14:15;7.85;;;1.63;;
64375;SDS011;50700;55.416;12.952;2023-07-31T01:16:41;4.32;;;1.75;;
64375;SDS011;50700;55.416;12.952;2023-07-31T01:19:06;7.32;;;1.63;;
64375;SDS011;50700;55.416;12.952;2023-07-31T01:24:07;8.85;;;2.10;;
64375;SDS011;50700;55.416;12.952;2023-07-31T01:26:36;8.23;;;1.83;;
64375;SDS011;50700;55.416;12.952;2023-07-31T01:29:06;4.18;;;1.63;;
64375;SDS011;50700;55.416;12.952;2023-07-31T01:31:32;5.93;;;1.67;;
64375;SDS011;50700;55.416;12.952;2023-07-31T01:34:00;2.85;;;1.40;;
64375;SDS011;50700;55.416;12.952;2023-07-31T01:36:26;5.03;;;1.58;;
64375;SDS011;50700;55.416;12.952;2023-07-31T01:38:51;4.68;;;1.80;;
64375;SDS011;50700;55.416;12.952;2023-07-31T01:41:19;6.68;;;2.15;;
64375;SDS011;50700;55.416;12.952;2023-07-31T01:43:47;8.00;;;1.90;;
64375;SDS011;50700;55.416;12.952;2023-07-31T01:46:13;6.38;;;2.13;;
64375;SDS011;50700;55.416;12.952;2023-07-31T01:48:38;7.75;;;1.70;;
64375;SDS011;50700;55.416;12.952;2023-07-31T01:51:04;7.47;;;2.10;;
64375;SDS011;50700;55.416;12.952;2023-07-31T01:53:32;8.65;;;2.05;;
64375;SDS011;50700;55.416;12.952;2023-07-31T01:55:57;9.20;;;2.13;;
64375;SDS011;50700;55.416;12.952;2023-07-31T01:58:23;5.32;;;1.70;;
64375;SDS011;50700;55.416;12.952;2023-07-31T02:00:48;6.22;;;1.80;;
64375;SDS011;50700;55.416;12.952;2023-07-31T02:03:13;6.70;;;2.10;;
64375;SDS011;50700;55.416;12.952;2023-07-31T02:05:45;4.97;;;2.05;;
64375;SDS011;50700;55.416;12.952;2023-07-31T02:08:11;8.60;;;2.47;;
64375;SDS011;50700;55.416;12.952;2023-07-31T02:10:36;8.75;;;1.88;;
64375;SDS011;50700;55.416;12.952;2023-07-31T02:13:01;7.65;;;1.83;;
64375;SDS011;50700;55.416;12.952;2023-07-31T02:15:29;5.85;;;2.25;;
64375;SDS011;50700;55.416;12.952;2023-07-31T02:17:54;8.23;;;1.88;;
64375;SDS011;50700;55.416;12.952;2023-07-31T02:20:20;8.95;;;2.03;;
64375;SDS011;50700;55.416;12.952;2023-07-31T02:22:45;6.28;;;1.73;;
64375;SDS011;50700;55.416;12.952;2023-07-31T02:25:10;9.40;;;2.35;;
64375;SDS011;50700;55.416;12.952;2023-07-31T02:27:36;15.05;;;2.92;;
64375;SDS011;50700;55.416;12.952;2023-07-31T02:30:01;10.45;;;2.22;;
64375;SDS011;50700;55.416;12.952;2023-07-31T02:32:26;6.80;;;2.10;;
64375;SDS011;50700;55.416;12.952;2023-07-31T02:34:52;11.80;;;2.03;;
64375;SDS011;50700;55.416;12.952;2023-07-31T02:37:17;5.93;;;1.60;;
64375;SDS011;50700;55.416;12.952;2023-07-31T02:39:43;5.75;;;2.20;;
64375;SDS011;50700;55.416;12.952;2023-07-31T02:42:08;10.23;;;2.30;;
64375;SDS011;50700;55.416;12.952;2023-07-31T02:44:33;8.05;;;1.98;;
64375;SDS011;50700;55.416;12.952;2023-07-31T02:46:59;4.57;;;1.90;;
64375;SDS011;50700;55.416;12.952;2023-07-31T02:49:24;6.03;;;1.83;;
64375;SDS011;50700;55.416;12.952;2023-07-31T02:51:49;10.45;;;2.55;;
64375;SDS011;50700;55.416;12.952;2023-07-31T02:54:15;6.05;;;1.70;;
64375;SDS011;50700;55.416;12.952;2023-07-31T02:56:40;7.93;;;1.75;;
64375;SDS011;50700;55.416;12.952;2023-07-31T02:59:06;7.45;;;2.17;;
64375;SDS011;50700;55.416;12.952;2023-07-31T03:01:31;8.25;;;1.98;;
64375;SDS011;50700;55.416;12.952;2023-07-31T03:03:56;8.50;;;1.90;;
64375;SDS011;50700;55.416;12.952;2023-07-31T03:06:22;4.22;;;1.95;;
64375;SDS011;50700;55.416;12.952;2023-07-31T03:08:47;5.20;;;1.40;;
64375;SDS011;50700;55.416;12.952;2023-07-31T03:11:13;6.07;;;1.50;;
64375;SDS011;50700;55.416;12.952;2023-07-31T03:13:38;8.30;;;2.00;;
64375;SDS011;50700;55.416;12.952;2023-07-31T03:16:03;6.00;;;1.88;;
64375;SDS011;50700;55.416;12.952;2023-07-31T03:18:29;4.90;;;1.88;;
64375;SDS011;50700;55.416;12.952;2023-07-31T03:20:54;5.70;;;1.90;;
64375;SDS011;50700;55.416;12.952;2023-07-31T03:23:20;5.63;;;2.20;;
64375;SDS011;50700;55.416;12.952;2023-07-31T03:26:01;12.52;;;2.15;;
64375;SDS011;50700;55.416;12.952;2023-07-31T03:28:28;7.13;;;1.30;;
64375;SDS011;50700;55.416;12.952;2023-07-31T03:30:53;5.30;;;1.42;;
64375;SDS011;50700;55.416;12.952;2023-07-31T03:33:19;4.50;;;1.63;;
64375;SDS011;50700;55.416;12.952;2023-07-31T03:35:44;2.40;;;1.48;;
64375;SDS011;50700;55.416;12.952;2023-07-31T03:38:09;3.15;;;1.45;;
64375;SDS011;50700;55.416;12.952;2023-07-31T03:40:35;6.25;;;1.50;;
64375;SDS011;50700;55.416;12.952;2023-07-31T03:43:00;6.90;;;1.25;;
64375;SDS011;50700;55.416;12.952;2023-07-31T03:45:26;2.67;;;1.30;;
64375;SDS011;50700;55.416;12.952;2023-07-31T03:47:51;5.05;;;1.80;;
64375;SDS011;50700;55.416;12.952;2023-07-31T03:50:16;3.45;;;1.50;;
64375;SDS011;50700;55.416;12.952;2023-07-31T03:52:42;6.80;;;1.77;;
64375;SDS011;50700;55.416;12.952;2023-07-31T03:55:07;6.05;;;1.98;;
64375;SDS011;50700;55.416;12.952;2023-07-31T03:57:33;4.55;;;1.30;;
64375;SDS011;50700;55.416;12.952;2023-07-31T03:59:58;3.30;;;1.65;;
64375;SDS011;50700;55.416;12.952;2023-07-31T04:02:24;7.43;;;1.58;;
64375;SDS011;50700;55.416;12.952;2023-07-31T04:04:49;4.10;;;1.40;;
64375;SDS011;50700;55.416;12.952;2023-07-31T04:07:14;7.15;;;1.58;;
64375;SDS011;50700;55.416;12.952;2023-07-31T04:09:40;3.90;;;1.30;;
64375;SDS011;50700;55.416;12.952;2023-07-31T04:12:05;2.80;;;1.17;;
64375;SDS011;50700;55.416;12.952;2023-07-31T04:14:30;3.72;;;1.50;;
64375;SDS011;50700;55.416;12.952;2023-07-31T04:16:56;3.40;;;1.38;;
64375;SDS011;50700;55.416;12.952;2023-07-31T04:19:21;3.22;;;1.38;;
64375;SDS011;50700;55.416;12.952;2023-07-31T04:21:47;3.40;;;1.10;;
64375;SDS011;50700;55.416;12.952;2023-07-31T04:24:12;8.77;;;1.80;;
64375;SDS011;50700;55.416;12.952;2023-07-31T04:26:38;4.05;;;1.05;;
64375;SDS011;50700;55.416;12.952;2023-07-31T04:29:03;4.43;;;1.48;;
64375;SDS011;50700;55.416;12.952;2023-07-31T04:31:28;6.25;;;1.20;;
64375;SDS011;50700;55.416;12.952;2023-07-31T04:33:54;4.18;;;1.20;;
64375;SDS011;50700;55.416;12.952;2023-07-31T04:36:19;4.93;;;1.50;;
64375;SDS011;50700;55.416;12.952;2023-07-31T04:38:44;4.47;;;1.23;;
64375;SDS011;50700;55.416;12.952;2023-07-31T04:41:10;3.20;;;1.38;;
64375;SDS011;50700;55.416;12.952;2023-07-31T04:43:35;5.95;;;1.42;;
64375;SDS011;50700;55.416;12.952;2023-07-31T04:46:00;4.60;;;1.20;;
64375;SDS011;50700;55.416;12.952;2023-07-31T04:48:26;1.42;;;0.98;;
64375;SDS011;50700;55.416;12.952;2023-07-31T04:50:51;2.33;;;0.85;;
64375;SDS011;50700;55.416;12.952;2023-07-31T04:53:16;6.43;;;1.10;;
64375;SDS011;50700;55.416;12.952;2023-07-31T04:55:42;4.00;;;1.20;;
64375;SDS011;50700;55.416;12.952;2023-07-31T04:58:07;4.30;;;1.17;;
64375;SDS011;50700;55.416;12.952;2023-07-31T05:00:33;4.32;;;1.15;;
64375;SDS011;50700;55.416;12.952;2023-07-31T05:02:58;2.72;;;1.17;;
64375;SDS011;50700;55.416;12.952;2023-07-31T05:05:23;4.43;;;1.45;;
64375;SDS011;50700;55.416;12.952;2023-07-31T05:07:49;4.38;;;1.30;;
64375;SDS011;50700;55.416;12.952;2023-07-31T05:10:14;5.10;;;2.13;;
64375;SDS011;50700;55.416;12.952;2023-07-31T05:12:40;6.70;;;1.35;;
64375;SDS011;50700;55.416;12.952;2023-07-31T05:15:05;2.88;;;1.00;;
64375;SDS011;50700;55.416;12.952;2023-07-31T05:17:31;4.80;;;1.50;;
64375;SDS011;50700;55.416;12.952;2023-07-31T05:19:57;3.45;;;1.40;;
64375;SDS011;50700;55.416;12.952;2023-07-31T05:22:22;1.63;;;0.88;;
64375;SDS011;50700;55.416;12.952;2023-07-31T05:24:48;3.30;;;1.55;;
64375;SDS011;50700;55.416;12.952;2023-07-31T05:27:13;5.40;;;1.60;;
64375;SDS011;50700;55.416;12.952;2023-07-31T05:29:40;4.18;;;1.35;;
64375;SDS011;50700;55.416;12.952;2023-07-31T05:32:06;3.15;;;1.60;;
64375;SDS011;50700;55.416;12.952;2023-07-31T05:34:31;3.50;;;1.42;;
64375;SDS011;50700;55.416;12.952;2023-07-31T05:36:56;2.80;;;1.05;;
64375;SDS011;50700;55.416;12.952;2023-07-31T05:39:22;5.10;;;1.65;;
64375;SDS011;50700;55.416;12.952;2023-07-31T05:41:47;1.67;;;1.42;;
64375;SDS011;50700;55.416;12.952;2023-07-31T05:44:12;3.63;;;1.40;;
64375;SDS011;50700;55.416;12.952;2023-07-31T05:46:38;5.00;;;1.52;;
64375;SDS011;50700;55.416;12.952;2023-07-31T05:49:03;5.38;;;1.83;;
64375;SDS011;50700;55.416;12.952;2023-07-31T05:51:29;3.70;;;1.40;;
64375;SDS011;50700;55.416;12.952;2023-07-31T05:53:54;4.10;;;1.30;;
64375;SDS011;50700;55.416;12.952;2023-07-31T05:56:20;2.22;;;1.10;;
64375;SDS011;50700;55.416;12.952;2023-07-31T05:58:45;1.98;;;1.52;;
64375;SDS011;50700;55.416;12.952;2023-07-31T06:01:11;1.83;;;1.00;;
64375;SDS011;50700;55.416;12.952;2023-07-31T06:03:36;3.03;;;0.98;;
64375;SDS011;50700;55.416;12.952;2023-07-31T06:06:01;2.35;;;1.00;;
64375;SDS011;50700;55.416;12.952;2023-07-31T06:08:27;1.33;;;0.90;;
64375;SDS011;50700;55.416;12.952;2023-07-31T06:10:52;3.20;;;0.90;;
64375;SDS011;50700;55.416;12.952;2023-07-31T06:13:18;2.17;;;1.00;;
64375;SDS011;50700;55.416;12.952;2023-07-31T06:15:43;4.50;;;1.15;;
64375;SDS011;50700;55.416;12.952;2023-07-31T06:18:08;1.83;;;1.10;;
64375;SDS011;50700;55.416;12.952;2023-07-31T06:20:35;1.70;;;0.80;;
64375;SDS011;50700;55.416;12.952;2023-07-31T06:23:01;1.45;;;1.30;;
64375;SDS011;50700;55.416;12.952;2023-07-31T06:25:26;2.28;;;1.15;;
64375;SDS011;50700;55.416;12.952;2023-07-31T06:27:51;1.92;;;0.90;;
64375;SDS011;50700;55.416;12.952;2023-07-31T06:30:17;1.60;;;0.95;;
64375;SDS011;50700;55.416;12.952;2023-07-31T06:32:42;3.50;;;1.20;;
64375;SDS011;50700;55.416;12.952;2023-07-31T06:35:08;3.08;;;1.20;;
64375;SDS011;50700;55.416;12.952;2023-07-31T06:37:33;5.07;;;1.15;;
64375;SDS011;50700;55.416;12.952;2023-07-31T06:39:58;5.60;;;1.52;;
64375;SDS011;50700;55.416;12.952;2023-07-31T06:42:24;5.57;;;1.33;;
64375;SDS011;50700;55.416;12.952;2023-07-31T06:44:49;3.20;;;1.35;;
64375;SDS011;50700;55.416;12.952;2023-07-31T06:47:15;3.55;;;1.30;;
64375;SDS011;50700;55.416;12.952;2023-07-31T06:49:40;2.92;;;1.10;;
64375;SDS011;50700;55.416;12.952;2023-07-31T06:52:06;3.20;;;1.20;;
64375;SDS011;50700;55.416;12.952;2023-07-31T06:54:31;5.20;;;1.13;;
64375;SDS011;50700;55.416;12.952;2023-07-31T06:56:57;4.63;;;1.10;;
64375;SDS011;50700;55.416;12.952;2023-07-31T06:59:22;3.72;;;1.25;;
64375;SDS011;50700;55.416;12.952;2023-07-31T07:01:47;1.52;;;0.90;;
64375;SDS011;50700;55.416;12.952;2023-07-31T07:04:13;1.55;;;1.20;;
64375;SDS011;50700;55.416;12.952;2023-07-31T07:06:38;4.07;;;1.27;;
64375;SDS011;50700;55.416;12.952;2023-07-31T07:09:04;3.33;;;1.38;;
64375;SDS011;50700;55.416;12.952;2023-07-31T07:11:30;4.70;;;1.17;;
64375;SDS011;50700;55.416;12.952;2023-07-31T07:13:55;3.28;;;1.30;;
64375;SDS011;50700;55.416;12.952;2023-07-31T07:16:20;5.28;;;1.55;;
64375;SDS011;50700;55.416;12.952;2023-07-31T07:18:46;5.75;;;2.03;;
64375;SDS011;50700;55.416;12.952;2023-07-31T07:21:11;2.78;;;1.63;;
64375;SDS011;50700;55.416;12.952;2023-07-31T07:23:41;3.95;;;1.77;;
64375;SDS011;50700;55.416;12.952;2023-07-31T07:26:06;2.85;;;1.30;;
64375;SDS011;50700;55.416;12.952;2023-07-31T07:28:31;4.47;;;1.73;;
64375;SDS011;50700;55.416;12.952;2023-07-31T07:30:57;3.95;;;1.95;;
64375;SDS011;50700;55.416;12.952;2023-07-31T07:33:23;9.50;;;2.53;;
64375;SDS011;50700;55.416;12.952;2023-07-31T07:35:48;5.13;;;2.08;;
64375;SDS011;50700;55.416;12.952;2023-07-31T07:38:14;4.18;;;1.95;;
64375;SDS011;50700;55.416;12.952;2023-07-31T07:40:40;7.80;;;2.05;;
64375;SDS011;50700;55.416;12.952;2023-07-31T07:43:06;3.63;;;1.98;;
64375;SDS011;50700;55.416;12.952;2023-07-31T07:45:31;4.38;;;2.13;;
64375;SDS011;50700;55.416;12.952;2023-07-31T07:47:56;5.63;;;2.65;;
64375;SDS011;50700;55.416;12.952;2023-07-31T07:50:22;5.22;;;2.30;;
64375;SDS011;50700;55.416;12.952;2023-07-31T07:52:48;4.32;;;2.20;;
64375;SDS011;50700;55.416;12.952;2023-07-31T07:55:13;4.05;;;2.15;;
64375;SDS011;50700;55.416;12.952;2023-07-31T07:57:39;3.35;;;2.30;;
64375;SDS011;50700;55.416;12.952;2023-07-31T08:00:04;3.15;;;2.15;;
64375;SDS011;50700;55.416;12.952;2023-07-31T08:02:30;5.00;;;2.25;;
64375;SDS011;50700;55.416;12.952;2023-07-31T08:04:56;5.00;;;2.00;;
64375;SDS011;50700;55.416;12.952;2023-07-31T08:07:21;5.70;;;3.05;;
64375;SDS011;50700;55.416;12.952;2023-07-31T08:09:47;2.40;;;2.13;;
64375;SDS011;50700;55.416;12.952;2023-07-31T08:12:12;4.93;;;2.42;;
64375;SDS011;50700;55.416;12.952;2023-07-31T08:14:37;8.35;;;2.60;;
64375;SDS011;50700;55.416;12.952;2023-07-31T08:17:03;5.32;;;1.20;;
64375;SDS011;50700;55.416;12.952;2023-07-31T08:19:29;8.48;;;1.75;;
64375;SDS011;50700;55.416;12.952;2023-07-31T08:21:54;12.98;;;1.67;;
64375;SDS011;50700;55.416;12.952;2023-07-31T08:24:20;8.60;;;1.83;;
64375;SDS011;50700;55.416;12.952;2023-07-31T08:26:45;10.40;;;2.13;;
64375;SDS011;50700;55.416;12.952;2023-07-31T08:29:12;5.07;;;1.30;;
64375;SDS011;50700;55.416;12.952;2023-07-31T08:31:37;2.17;;;1.30;;
64375;SDS011;50700;55.416;12.952;2023-07-31T08:34:02;1.30;;;0.90;;
64375;SDS011;50700;55.416;12.952;2023-07-31T08:36:28;3.22;;;1.35;;
64375;SDS011;50700;55.416;12.952;2023-07-31T08:38:53;1.52;;;1.05;;
64375;SDS011;50700;55.416;12.952;2023-07-31T08:41:18;1.45;;;1.02;;
64375;SDS011;50700;55.416;12.952;2023-07-31T08:43:45;2.63;;;1.40;;
64375;SDS011;50700;55.416;12.952;2023-07-31T08:46:11;3.25;;;1.55;;
64375;SDS011;50700;55.416;12.952;2023-07-31T08:48:37;4.03;;;2.03;;
64375;SDS011;50700;55.416;12.952;2023-07-31T08:51:03;5.28;;;1.98;;
64375;SDS011;50700;55.416;12.952;2023-07-31T08:53:29;8.63;;;2.00;;
64375;SDS011;50700;55.416;12.952;2023-07-31T08:55:54;1.42;;;1.33;;
64375;SDS011;50700;55.416;12.952;2023-07-31T08:58:20;2.38;;;1.83;;
64375;SDS011;50700;55.416;12.952;2023-07-31T09:00:45;5.30;;;2.08;;
64375;SDS011;50700;55.416;12.952;2023-07-31T09:03:15;2.22;;;1.60;;
64375;SDS011;50700;55.416;12.952;2023-07-31T09:05:44;2.63;;;2.00;;
64375;SDS011;50700;55.416;12.952;2023-07-31T09:08:10;3.00;;;1.92;;
64375;SDS011;50700;55.416;12.952;2023-07-31T09:10:40;3.33;;;2.22;;
64375;SDS011;50700;55.416;12.952;2023-07-31T09:13:05;3.10;;;2.03;;
64375;SDS011;50700;55.416;12.952;2023-07-31T09:15:31;3.25;;;2.30;;
64375;SDS011;50700;55.416;12.952;2023-07-31T09:18:00;4.65;;;2.40;;
64375;SDS011;50700;55.416;12.952;2023-07-31T09:20:26;7.47;;;3.35;;
64375;SDS011;50700;55.416;12.952;2023-07-31T09:22:52;5.15;;;3.25;;
64375;SDS011;50700;55.416;12.952;2023-07-31T09:27:50;4.03;;;2.80;;
64375;SDS011;50700;55.416;12.952;2023-07-31T09:30:15;8.88;;;4.18;;
64375;SDS011;50700;55.416;12.952;2023-07-31T09:32:41;4.63;;;3.28;;
64375;SDS011;50700;55.416;12.952;2023-07-31T09:37:38;10.40;;;4.35;;
64375;SDS011;50700;55.416;12.952;2023-07-31T09:40:04;5.35;;;3.83;;
64375;SDS011;50700;55.416;12.952;2023-07-31T09:42:29;6.78;;;3.78;;
64375;SDS011;50700;55.416;12.952;2023-07-31T09:45:06;7.50;;;4.75;;
64375;SDS011;50700;55.416;12.952;2023-07-31T09:47:32;6.78;;;3.80;;
64375;SDS011;50700;55.416;12.952;2023-07-31T09:49:57;10.52;;;4.38;;
64375;SDS011;50700;55.416;12.952;2023-07-31T09:52:24;7.88;;;4.00;;
64375;SDS011;50700;55.416;12.952;2023-07-31T09:54:51;4.90;;;3.45;;
64375;SDS011;50700;55.416;12.952;2023-07-31T09:57:16;5.78;;;3.78;;
64375;SDS011;50700;55.416;12.952;2023-07-31T09:59:42;7.63;;;4.47;;
64375;SDS011;50700;55.416;12.952;2023-07-31T10:02:08;9.48;;;4.75;;
64375;SDS011;50700;55.416;12.952;2023-07-31T10:04:40;8.43;;;5.03;;
64375;SDS011;50700;55.416;12.952;2023-07-31T10:07:06;9.18;;;5.22;;
64375;SDS011;50700;55.416;12.952;2023-07-31T10:09:32;9.05;;;5.30;;
64375;SDS011;50700;55.416;12.952;2023-07-31T10:12:02;8.40;;;4.65;;
64375;SDS011;50700;55.416;12.952;2023-07-31T10:14:30;7.70;;;4.57;;
64375;SDS011;50700;55.416;12.952;2023-07-31T10:16:57;10.50;;;3.95;;
64375;SDS011;50700;55.416;12.952;2023-07-31T10:19:23;6.47;;;3.58;;
64375;SDS011;50700;55.416;12.952;2023-07-31T10:21:49;11.68;;;4.00;;
64375;SDS011;50700;55.416;12.952;2023-07-31T10:24:14;7.15;;;3.60;;
64375;SDS011;50700;55.416;12.952;2023-07-31T10:26:41;12.27;;;4.28;;
64375;SDS011;50700;55.416;12.952;2023-07-31T10:29:10;11.60;;;3.45;;
64375;SDS011;50700;55.416;12.952;2023-07-31T10:31:36;4.15;;;3.42;;
64375;SDS011;50700;55.416;12.952;2023-07-31T10:34:02;5.32;;;3.55;;
64375;SDS011;50700;55.416;12.952;2023-07-31T10:36:28;7.22;;;3.00;;
64375;SDS011;50700;55.416;12.952;2023-07-31T10:38:54;4.32;;;3.05;;
64375;SDS011;50700;55.416;12.952;2023-07-31T10:41:27;5.72;;;3.30;;
64375;SDS011;50700;55.416;12.952;2023-07-31T10:46:18;3.47;;;2.63;;
64375;SDS011;50700;55.416;12.952;2023-07-31T10:48:43;4.63;;;2.85;;
64375;SDS011;50700;55.416;12.952;2023-07-31T10:51:09;3.22;;;2.75;;
64375;SDS011;50700;55.416;12.952;2023-07-31T10:53:35;3.65;;;2.67;;
64375;SDS011;50700;55.416;12.952;2023-07-31T10:56:01;2.47;;;2.28;;
64375;SDS011;50700;55.416;12.952;2023-07-31T10:58:27;9.45;;;2.60;;
64375;SDS011;50700;55.416;12.952;2023-07-31T11:00:56;2.92;;;2.47;;
64375;SDS011;50700;55.416;12.952;2023-07-31T11:03:24;8.18;;;2.53;;
64375;SDS011;50700;55.416;12.952;2023-07-31T11:05:51;3.55;;;2.55;;
64375;SDS011;50700;55.416;12.952;2023-07-31T11:13:28;7.72;;;2.20;;
64375;SDS011;50700;55.416;12.952;2023-07-31T11:15:53;4.03;;;2.40;;
64375;SDS011;50700;55.416;12.952;2023-07-31T11:18:19;2.70;;;2.10;;
64375;SDS011;50700;55.416;12.952;2023-07-31T11:20:44;5.18;;;2.22;;
64375;SDS011;50700;55.416;12.952;2023-07-31T11:23:10;3.97;;;2.30;;
64375;SDS011;50700;55.416;12.952;2023-07-31T11:25:36;8.05;;;2.40;;
64375;SDS011;50700;55.416;12.952;2023-07-31T11:28:03;2.58;;;2.25;;
64375;SDS011;50700;55.416;12.952;2023-07-31T11:30:28;3.20;;;2.35;;
64375;SDS011;50700;55.416;12.952;2023-07-31T11:32:54;2.65;;;2.20;;
64375;SDS011;50700;55.416;12.952;2023-07-31T11:35:20;3.92;;;2.08;;
64375;SDS011;50700;55.416;12.952;2023-07-31T11:37:45;4.97;;;2.30;;
64375;SDS011;50700;55.416;12.952;2023-07-31T11:40:11;2.05;;;1.85;;
64375;SDS011;50700;55.416;12.952;2023-07-31T11:42:37;4.22;;;2.20;;
64375;SDS011;50700;55.416;12.952;2023-07-31T11:45:03;7.32;;;2.45;;
64375;SDS011;50700;55.416;12.952;2023-07-31T11:47:29;5.90;;;2.33;;
64375;SDS011;50700;55.416;12.952;2023-07-31T11:49:55;5.35;;;2.47;;
64375;SDS011;50700;55.416;12.952;2023-07-31T11:52:21;2.63;;;2.20;;
64375;SDS011;50700;55.416;12.952;2023-07-31T11:54:48;5.47;;;2.50;;
64375;SDS011;50700;55.416;12.952;2023-07-31T11:57:14;3.92;;;2.40;;
64375;SDS011;50700;55.416;12.952;2023-07-31T11:59:39;3.08;;;2.30;;
64375;SDS011;50700;55.416;12.952;2023-07-31T12:02:05;6.25;;;2.53;;
64375;SDS011;50700;55.416;12.952;2023-07-31T12:04:30;2.92;;;1.88;;
64375;SDS011;50700;55.416;12.952;2023-07-31T12:06:56;4.57;;;2.30;;
64375;SDS011;50700;55.416;12.952;2023-07-31T12:09:22;3.03;;;2.25;;
64375;SDS011;50700;55.416;12.952;2023-07-31T12:11:48;3.85;;;2.35;;
64375;SDS011;50700;55.416;12.952;2023-07-31T12:14:24;5.05;;;2.33;;
64375;SDS011;50700;55.416;12.952;2023-07-31T12:16:59;3.25;;;1.90;;
64375;SDS011;50700;55.416;12.952;2023-07-31T12:19:25;5.07;;;2.03;;
64375;SDS011;50700;55.416;12.952;2023-07-31T12:21:53;1.95;;;1.77;;
64375;SDS011;50700;55.416;12.952;2023-07-31T12:24:18;3.05;;;1.80;;
64375;SDS011;50700;55.416;12.952;2023-07-31T12:26:45;5.53;;;2.17;;
64375;SDS011;50700;55.416;12.952;2023-07-31T12:29:11;2.42;;;1.95;;
64375;SDS011;50700;55.416;12.952;2023-07-31T12:31:37;4.38;;;2.47;;
64375;SDS011;50700;55.416;12.952;2023-07-31T12:34:02;2.55;;;1.85;;
64375;SDS011;50700;55.416;12.952;2023-07-31T12:36:28;1.58;;;1.48;;
64375;SDS011;50700;55.416;12.952;2023-07-31T12:38:55;2.20;;;1.65;;
64375;SDS011;50700;55.416;12.952;2023-07-31T12:41:24;3.00;;;1.60;;
64375;SDS011;50700;55.416;12.952;2023-07-31T12:43:49;4.13;;;1.90;;
64375;SDS011;50700;55.416;12.952;2023-07-31T12:46:15;3.70;;;2.20;;
64375;SDS011;50700;55.416;12.952;2023-07-31T12:48:41;4.85;;;1.80;;
64375;SDS011;50700;55.416;12.952;2023-07-31T12:51:06;2.95;;;1.80;;
64375;SDS011;50700;55.416;12.952;2023-07-31T12:53:32;4.80;;;2.70;;
64375;SDS011;50700;55.416;12.952;2023-07-31T12:55:58;2.10;;;1.63;;
64375;SDS011;50700;55.416;12.952;2023-07-31T12:58:24;1.50;;;1.40;;
64375;SDS011;50700;55.416;12.952;2023-07-31T13:00:49;3.38;;;1.48;;
64375;SDS011;50700;55.416;12.952;2023-07-31T13:03:15;2.20;;;1.30;;
64375;SDS011;50700;55.416;12.952;2023-07-31T13:05:40;2.42;;;1.35;;
64375;SDS011;50700;55.416;12.952;2023-07-31T13:08:05;1.75;;;1.40;;
64375;SDS011;50700;55.416;12.952;2023-07-31T13:10:31;3.75;;;1.42;;
64375;SDS011;50700;55.416;12.952;2023-07-31T13:12:56;3.83;;;1.48;;
64375;SDS011;50700;55.416;12.952;2023-07-31T13:15:22;1.23;;;1.13;;
64375;SDS011;50700;55.416;12.952;2023-07-31T13:17:48;1.85;;;1.42;;
64375;SDS011;50700;55.416;12.952;2023-07-31T13:20:13;1.85;;;1.20;;
64375;SDS011;50700;55.416;12.952;2023-07-31T13:22:38;1.77;;;1.25;;
64375;SDS011;50700;55.416;12.952;2023-07-31T13:25:04;2.45;;;1.42;;
64375;SDS011;50700;55.416;12.952;2023-07-31T13:27:30;4.65;;;1.40;;
64375;SDS011;50700;55.416;12.952;2023-07-31T13:29:55;3.25;;;1.20;;
64375;SDS011;50700;55.416;12.952;2023-07-31T13:32:21;1.88;;;1.00;;
64375;SDS011;50700;55.416;12.952;2023-07-31T13:34:47;2.30;;;1.30;;
64375;SDS011;50700;55.416;12.952;2023-07-31T13:37:12;2.58;;;1.58;;
64375;SDS011;50700;55.416;12.952;2023-07-31T13:39:38;1.65;;;1.33;;
64375;SDS011;50700;55.416;12.952;2023-07-31T13:42:04;6.70;;;1.83;;
64375;SDS011;50700;55.416;12.952;2023-07-31T13:44:31;2.17;;;1.70;;
64375;SDS011;50700;55.416;12.952;2023-07-31T13:46:57;2.13;;;1.73;;
64375;SDS011;50700;55.416;12.952;2023-07-31T13:49:22;6.05;;;1.60;;
64375;SDS011;50700;55.416;12.952;2023-07-31T13:51:48;1.88;;;1.45;;
64375;SDS011;50700;55.416;12.952;2023-07-31T13:54:13;3.78;;;2.00;;
64375;SDS011;50700;55.416;12.952;2023-07-31T13:56:40;2.10;;;1.40;;
64375;SDS011;50700;55.416;12.952;2023-07-31T13:59:06;1.58;;;1.33;;
64375;SDS011;50700;55.416;12.952;2023-07-31T14:01:31;2.90;;;1.33;;
64375;SDS011;50700;55.416;12.952;2023-07-31T14:03:57;2.85;;;1.65;;
64375;SDS011;50700;55.416;12.952;2023-07-31T14:06:22;8.00;;;2.08;;
64375;SDS011;50700;55.416;12.952;2023-07-31T14:08:48;5.15;;;1.73;;
64375;SDS011;50700;55.416;12.952;2023-07-31T14:11:13;5.07;;;1.75;;
64375;SDS011;50700;55.416;12.952;2023-07-31T14:13:39;3.35;;;1.63;;
64375;SDS011;50700;55.416;12.952;2023-07-31T14:16:04;3.85;;;1.60;;
64375;SDS011;50700;55.416;12.952;2023-07-31T14:18:30;1.73;;;1.40;;
64375;SDS011;50700;55.416;12.952;2023-07-31T14:20:58;2.00;;;1.48;;
64375;SDS011;50700;55.416;12.952;2023-07-31T14:23:23;2.35;;;1.27;;
64375;SDS011;50700;55.416;12.952;2023-07-31T14:25:49;1.63;;;1.33;;
64375;SDS011;50700;55.416;12.952;2023-07-31T14:28:14;1.63;;;1.10;;
64375;SDS011;50700;55.416;12.952;2023-07-31T14:30:40;2.05;;;1.48;;
64375;SDS011;50700;55.416;12.952;2023-07-31T14:33:05;1.98;;;1.20;;
64375;SDS011;50700;55.416;12.952;2023-07-31T14:35:31;3.33;;;1.27;;
64375;SDS011;50700;55.416;12.952;2023-07-31T14:37:57;1.48;;;1.30;;
64375;SDS011;50700;55.416;12.952;2023-07-31T14:40:22;5.82;;;1.45;;
64375;SDS011;50700;55.416;12.952;2023-07-31T14:42:47;4.07;;;1.45;;